createdAt,value
2019-02-27T00:01:24.923Z,102230.56
2019-02-27T00:03:53.302Z,102230.12
2019-02-27T00:06:41.031Z,102229.25
2019-02-27T00:09:49.334Z,102224.92
2019-02-27T00:12:36.962Z,102224.09
2019-02-27T00:15:45.256Z,102222.34
2019-02-27T00:18:13.642Z,102219.28
2019-02-27T00:20:42.025Z,102213.25
2019-02-27T00:23:10.403Z,102214.97
2019-02-27T00:25:38.793Z,102214.19
2019-02-27T00:28:26.421Z,102215.47
2019-02-27T00:30:54.814Z,102211.55
2019-02-27T00:33:42.310Z,102207.63
2019-02-27T00:39:24.267Z,102203.32
2019-02-27T00:44:26.980Z,102203.34
2019-02-27T00:46:55.369Z,102198.98
2019-02-27T00:49:23.747Z,102199.02
2019-02-27T00:51:52.150Z,102195.95
2019-02-27T00:54:20.799Z,102191.59
2019-02-27T00:56:49.230Z,102193.38
2019-02-27T00:59:17.625Z,102192.52
2019-02-27T01:01:47.429Z,102192.52
2019-02-27T01:04:16.151Z,102194.28
2019-02-27T01:06:45.061Z,102196.48
2019-02-27T01:09:14.928Z,102189.53
2019-02-27T01:11:43.315Z,102192.27
2019-02-27T01:14:11.691Z,102183.53
2019-02-27T01:16:40.083Z,102190.48
2019-02-27T01:19:08.460Z,102183.53
2019-02-27T01:21:36.856Z,102185.72
2019-02-27T01:24:05.233Z,102180.96
2019-02-27T01:26:33.621Z,102178.35
2019-02-27T01:29:02.018Z,102171.38
2019-02-27T01:31:30.404Z,102169.22
2019-02-27T01:33:58.780Z,102167.03
2019-02-27T01:36:27.171Z,102164.88
2019-02-27T01:38:55.550Z,102151.46
2019-02-27T01:41:24.574Z,102150.16
2019-02-27T01:43:53.820Z,102138.09
2019-02-27T01:46:22.210Z,102144.15
2019-02-27T01:48:50.596Z,102134.55
2019-02-27T01:51:18.972Z,102134.16
2019-02-27T01:53:47.449Z,102128.91
2019-02-27T01:56:15.840Z,102129.86
2019-02-27T01:58:44.468Z,102116.35
2019-02-27T02:01:12.853Z,102113.78
2019-02-27T02:03:41.401Z,102104.26
2019-02-27T02:06:09.798Z,102100.77
2019-02-27T02:08:38.421Z,102095.95
2019-02-27T02:11:06.803Z,102090.32
2019-02-27T02:13:57.538Z,102089.01
2019-02-27T02:16:34.174Z,102083.80
2019-02-27T02:19:33.837Z,102082.92
2019-02-27T02:22:08.892Z,102074.66
2019-02-27T02:24:58.735Z,102073.38
2019-02-27T02:27:35.942Z,102067.30
2019-02-27T02:30:41.055Z,102065.58
2019-02-27T02:33:35.095Z,102058.19
2019-02-27T02:36:15.358Z,102044.33
2019-02-27T02:39:01.701Z,102050.45
2019-02-27T02:41:48.016Z,102045.21
2019-02-27T02:44:43.714Z,102036.95
2019-02-27T02:47:24.252Z,102037.39
2019-02-27T02:50:17.658Z,102036.53
2019-02-27T02:52:59.981Z,102031.36
2019-02-27T02:55:36.940Z,102016.20
2019-02-27T02:58:11.356Z,102014.05
2019-02-27T03:00:49.947Z,102006.20
2019-02-27T03:03:27.158Z,102009.25
2019-02-27T03:06:04.620Z,102008.02
2019-02-27T03:08:38.660Z,102005.81
2019-02-27T03:11:43.563Z,102006.66
2019-02-27T03:14:23.494Z,102004.05
2019-02-27T03:17:21.482Z,102004.93
2019-02-27T03:19:55.610Z,102000.20
2019-02-27T03:22:43.573Z,101997.60
2019-02-27T03:25:24.006Z,102003.28
2019-02-27T03:27:55.450Z,102000.32
2019-02-27T03:30:36.842Z,101996.39
2019-02-27T03:33:24.478Z,101993.78
2019-02-27T03:36:08.644Z,101990.73
2019-02-27T03:38:59.127Z,101992.88
2019-02-27T03:41:31.426Z,101993.72
2019-02-27T03:44:20.222Z,101989.81
2019-02-27T03:46:50.201Z,101988.09
2019-02-27T03:49:40.687Z,101990.25
2019-02-27T03:52:27.605Z,101982.85
2019-02-27T03:55:07.949Z,101978.95
2019-02-27T03:58:02.010Z,101976.77
2019-02-27T04:00:43.733Z,101972.87
2019-02-27T04:03:27.151Z,101970.27
2019-02-27T04:06:10.196Z,101972.45
2019-02-27T04:08:58.594Z,101969.42
2019-02-27T04:11:27.513Z,101972.92
2019-02-27T04:14:03.247Z,101973.34
2019-02-27T04:16:29.301Z,101971.58
2019-02-27T04:18:59.965Z,101971.16
2019-02-27T04:21:26.259Z,101967.67
2019-02-27T04:23:54.644Z,101966.37
2019-02-27T04:26:23.020Z,101967.67
2019-02-27T04:28:51.405Z,101963.28
2019-02-27T04:31:19.800Z,101962.80
2019-02-27T04:33:48.178Z,101961.03
2019-02-27T04:36:16.555Z,101952.36
2019-02-27T04:38:44.940Z,101957.12
2019-02-27T04:41:17.881Z,101953.64
2019-02-27T04:43:43.766Z,101952.36
2019-02-27T04:46:12.136Z,101948.89
2019-02-27T04:48:40.534Z,101954.10
2019-02-27T04:51:08.933Z,101948.03
2019-02-27T04:53:37.336Z,101952.83
2019-02-27T04:56:05.717Z,101960.24
2019-02-27T04:58:34.097Z,101963.77
2019-02-27T05:01:02.481Z,101963.32
2019-02-27T05:03:30.877Z,101961.56
2019-02-27T05:05:59.289Z,101958.98
2019-02-27T05:08:27.819Z,101961.63
2019-02-27T05:10:56.250Z,101963.28
2019-02-27T05:13:24.618Z,101960.67
2019-02-27T05:15:53.303Z,101953.70
2019-02-27T05:18:21.679Z,101953.73
2019-02-27T05:20:50.068Z,101948.51
2019-02-27T05:23:18.450Z,101951.15
2019-02-27T05:25:46.868Z,101954.23
2019-02-27T05:28:15.256Z,101951.22
2019-02-27T05:30:45.224Z,101949.03
2019-02-27T05:33:13.982Z,101947.77
2019-02-27T05:35:42.377Z,101946.94
2019-02-27T05:38:10.769Z,101945.21
2019-02-27T05:40:39.169Z,101943.88
2019-02-27T05:43:07.561Z,101942.14
2019-02-27T05:45:35.963Z,101943.92
2019-02-27T05:48:04.471Z,101945.64
2019-02-27T05:50:35.255Z,101937.81
2019-02-27T05:53:02.994Z,101943.03
2019-02-27T05:55:31.382Z,101942.16
2019-02-27T05:57:59.769Z,101943.53
2019-02-27T06:00:28.154Z,101945.67
2019-02-27T06:02:56.985Z,101943.11
2019-02-27T06:05:25.356Z,101942.23
2019-02-27T06:07:53.733Z,101939.62
2019-02-27T06:10:23.581Z,101934.80
2019-02-27T06:12:52.097Z,101942.61
2019-02-27T06:15:20.483Z,101934.78
2019-02-27T06:17:49.719Z,101928.70
2019-02-27T06:20:18.264Z,101930.02
2019-02-27T06:22:46.647Z,101930.47
2019-02-27T06:25:23.179Z,101928.75
2019-02-27T06:27:48.753Z,101930.05
2019-02-27T06:30:18.981Z,101932.20
2019-02-27T06:32:47.384Z,101927.38
2019-02-27T06:35:16.051Z,101925.63
2019-02-27T06:37:44.429Z,101926.48
2019-02-27T06:40:18.830Z,101927.33
2019-02-27T06:42:47.373Z,101922.07
2019-02-27T06:45:18.764Z,101916.42
2019-02-27T06:47:47.144Z,101917.75
2019-02-27T06:50:18.291Z,101919.42
2019-02-27T06:52:46.669Z,101915.48
2019-02-27T06:55:54.976Z,101916.33
2019-02-27T06:58:42.598Z,101919.69
2019-02-27T07:01:13.111Z,101916.45
2019-02-27T07:11:38.388Z,101919.89
2019-02-27T07:14:06.778Z,101921.55
2019-02-27T07:16:56.993Z,101921.03
2019-02-27T07:19:24.611Z,101923.34
2019-02-27T07:21:52.999Z,101918.11
2019-02-27T07:24:21.381Z,101928.20
2019-02-27T07:26:50.698Z,101932.84
2019-02-27T07:29:21.921Z,101938.75
2019-02-27T07:32:09.110Z,101945.63
2019-02-27T07:34:56.752Z,101950.12
2019-02-27T07:37:25.143Z,101951.48
2019-02-27T07:40:12.777Z,101957.71
2019-02-27T07:43:00.416Z,101962.75
2019-02-27T07:45:28.803Z,101961.45
2019-02-27T07:51:10.931Z,101968.02
2019-02-27T07:53:58.429Z,101971.64
2019-02-27T07:56:26.819Z,101972.70
2019-02-27T07:59:14.324Z,101981.63
2019-02-27T08:01:43.942Z,101971.67
2019-02-27T08:04:12.825Z,101967.30
2019-02-27T08:06:41.566Z,101958.95
2019-02-27T08:12:00.470Z,101951.80
2019-02-27T08:14:28.885Z,101951.81
2019-02-27T08:17:17.865Z,101946.91
2019-02-27T08:19:46.542Z,101944.22
2019-02-27T08:22:54.880Z,101941.81
2019-02-27T08:25:23.285Z,101940.59
2019-02-27T08:28:11.038Z,101943.82
2019-02-27T08:30:39.448Z,101938.52
2019-02-27T08:33:08.410Z,101943.95
2019-02-27T08:35:57.126Z,101939.45
2019-02-27T08:40:59.524Z,101932.59
2019-02-27T08:43:47.188Z,101918.37
2019-02-27T08:46:15.592Z,101917.91
2019-02-27T08:49:03.257Z,101914.52
2019-02-27T08:51:31.671Z,101907.59
2019-02-27T08:54:00.078Z,101910.50
2019-02-27T08:56:30.072Z,101908.11
2019-02-27T08:58:58.616Z,101907.21
2019-02-27T09:04:33.594Z,101900.39
2019-02-27T09:07:02.819Z,101904.69
2019-02-27T09:14:55.871Z,101900.45
2019-02-27T09:17:26.899Z,101895.66
2019-02-27T09:19:53.849Z,101891.09
2019-02-27T09:22:41.594Z,101895.56
2019-02-27T09:25:57.047Z,101890.48
2019-02-27T09:28:20.041Z,101887.75
2019-02-27T09:33:38.554Z,101880.25
2019-02-27T09:36:00.825Z,101881.70
2019-02-27T09:38:48.353Z,101875.67
2019-02-27T09:41:16.761Z,101869.77
2019-02-27T09:44:04.294Z,101859.71
2019-02-27T09:46:32.703Z,101865.92
2019-02-27T09:49:20.234Z,101858.86
2019-02-27T09:51:48.643Z,101860.80
2019-02-27T09:54:36.306Z,101853.89
2019-02-27T09:57:04.718Z,101848.72
2019-02-27T09:59:53.663Z,101846.02
2019-02-27T10:02:22.506Z,101844.58
2019-02-27T10:04:50.913Z,101841.17
2019-02-27T10:07:38.574Z,101837.02
2019-02-27T10:10:46.882Z,101828.70
2019-02-27T10:16:08.111Z,101819.35
2019-02-27T10:18:55.892Z,101808.31
2019-02-27T10:21:24.329Z,101804.23
2019-02-27T10:23:53.286Z,101810.34
2019-02-27T10:26:22.873Z,101801.99
2019-02-27T10:28:51.544Z,101802.22
2019-02-27T10:31:39.065Z,101797.41
2019-02-27T10:34:07.479Z,101795.95
2019-02-27T10:36:55.180Z,101788.31
2019-02-27T10:39:23.628Z,101789.23
2019-02-27T10:41:52.034Z,101777.19
2019-02-27T10:44:39.787Z,101769.88
2019-02-27T10:47:27.442Z,101768.81
2019-02-27T10:50:15.106Z,101764.58
2019-02-27T10:53:02.838Z,101756.61
2019-02-27T10:55:50.355Z,101753.19
2019-02-27T10:58:18.775Z,101755.96
2019-02-27T11:03:55.529Z,101740.34
2019-02-27T11:06:45.136Z,101742.77
2019-02-27T11:09:32.734Z,101742.34
2019-02-27T11:12:20.254Z,101728.45
2019-02-27T11:15:08.243Z,101727.30
2019-02-27T11:17:55.916Z,101727.75
2019-02-27T11:20:24.743Z,101716.80
2019-02-27T11:22:54.483Z,101707.52
2019-02-27T11:25:42.238Z,101707.47
2019-02-27T11:28:29.890Z,101696.86
2019-02-27T11:31:17.551Z,101698.89
2019-02-27T11:33:45.957Z,101699.95
2019-02-27T11:36:34.939Z,101691.62
2019-02-27T11:39:23.028Z,101690.89
2019-02-27T11:41:51.433Z,101676.48
2019-02-27T11:44:19.850Z,101680.58
2019-02-27T11:46:58.420Z,101676.20
2019-02-27T11:49:18.394Z,101670.88
2019-02-27T11:51:46.803Z,101658.02
2019-02-27T11:54:34.461Z,101653.98
2019-02-27T11:57:02.865Z,101652.72
2019-02-27T11:59:50.395Z,101653.70
2019-02-27T12:05:46.159Z,101639.52
2019-02-27T12:08:14.565Z,101639.12
2019-02-27T12:13:35.975Z,101623.20
2019-02-27T12:16:44.299Z,101612.48
2019-02-27T12:19:12.708Z,101612.33
2019-02-27T12:21:41.129Z,101609.33
2019-02-27T12:24:28.645Z,101597.53
2019-02-27T12:27:25.708Z,101596.09
2019-02-27T12:29:46.434Z,101597.73
2019-02-27T12:32:14.851Z,101593.69
2019-02-27T12:35:03.190Z,101583.33
2019-02-27T12:37:50.973Z,101584.91
2019-02-27T12:40:59.277Z,101576.42
2019-02-27T12:43:27.682Z,101576.74
2019-02-27T12:46:15.435Z,101569.80
2019-02-27T12:48:46.147Z,101570.19
2019-02-27T12:51:13.984Z,101568.08
2019-02-27T12:53:42.527Z,101560.84
2019-02-27T12:58:46.482Z,101550.17
2019-02-27T13:01:16.360Z,101559.47
2019-02-27T13:03:45.018Z,101550.48
2019-02-27T13:06:13.438Z,101552.37
2019-02-27T13:08:41.844Z,101552.29
2019-02-27T13:11:50.159Z,101553.14
2019-02-27T13:14:18.561Z,101551.87
2019-02-27T13:17:06.225Z,101553.62
2019-02-27T13:19:34.626Z,101558.37
2019-02-27T13:22:22.286Z,101547.01
2019-02-27T13:25:09.939Z,101545.13
2019-02-27T13:27:40.391Z,101537.66
2019-02-27T13:30:28.211Z,101526.79
2019-02-27T13:33:00.614Z,101526.33
2019-02-27T13:35:28.443Z,101518.54
2019-02-27T13:43:39.978Z,101495.89
2019-02-27T13:46:27.498Z,101491.34
2019-02-27T13:48:55.909Z,101485.34
2019-02-27T13:51:24.308Z,101490.88
2019-02-27T13:53:52.727Z,101490.09
2019-02-27T13:56:21.132Z,101482.00
2019-02-27T13:59:10.903Z,101472.00
2019-02-27T14:01:39.156Z,101471.87
2019-02-27T14:04:26.707Z,101466.80
2019-02-27T14:07:14.358Z,101460.16
2019-02-27T14:09:42.755Z,101449.58
2019-02-27T14:12:51.083Z,101451.95
2019-02-27T14:16:00.869Z,101445.86
2019-02-27T14:18:29.573Z,101434.55
2019-02-27T14:21:17.117Z,101422.44
2019-02-27T14:23:46.827Z,101419.45
2019-02-27T14:26:15.651Z,101406.63
2019-02-27T14:28:44.061Z,101407.52
2019-02-27T14:33:59.917Z,101397.70
2019-02-27T14:36:28.325Z,101395.80
2019-02-27T14:38:56.837Z,101393.17
2019-02-27T14:41:25.230Z,101386.05
2019-02-27T14:44:12.891Z,101384.22
2019-02-27T14:47:00.411Z,101380.66
2019-02-27T14:49:28.828Z,101379.23
2019-02-27T14:54:44.688Z,101373.44
2019-02-27T14:57:16.038Z,101367.31
2019-02-27T15:02:22.054Z,101355.77
2019-02-27T15:04:47.765Z,101354.64
2019-02-27T15:07:35.285Z,101346.23
2019-02-27T15:10:43.622Z,101342.13
2019-02-27T15:13:31.296Z,101333.63
2019-02-27T15:15:59.702Z,101325.81
2019-02-27T15:18:28.120Z,101319.23
2019-02-27T15:20:56.527Z,101312.52
2019-02-27T15:23:44.193Z,101312.50
2019-02-27T15:26:13.906Z,101308.87
2019-02-27T15:28:42.734Z,101303.23
2019-02-27T15:31:11.147Z,101299.56
2019-02-27T15:33:58.807Z,101295.79
2019-02-27T15:36:46.331Z,101294.89
2019-02-27T15:39:20.272Z,101293.58
2019-02-27T15:42:08.558Z,101287.45
2019-02-27T15:44:34.523Z,101286.12
2019-02-27T15:50:56.562Z,101277.15
2019-02-27T15:53:41.473Z,101274.92
2019-02-27T15:59:44.746Z,101266.89
2019-02-27T16:02:13.166Z,101261.81
2019-02-27T16:05:00.821Z,101250.61
2019-02-27T16:07:29.233Z,101245.67
2019-02-27T16:09:57.658Z,101242.82
2019-02-27T16:12:45.308Z,101235.70
2019-02-27T16:15:53.634Z,101231.95
2019-02-27T16:21:09.495Z,101230.65
2019-02-27T16:23:38.132Z,101224.36
2019-02-27T16:26:08.044Z,101207.35
2019-02-27T16:31:23.906Z,101200.39
2019-02-27T16:34:11.793Z,101199.34
2019-02-27T16:36:40.211Z,101196.20
2019-02-27T16:42:22.096Z,101196.77
2019-02-27T16:44:50.507Z,101189.42
2019-02-27T16:47:19.659Z,101188.00
2019-02-27T16:49:50.467Z,101185.29
2019-02-27T16:52:41.735Z,101185.70
2019-02-27T16:55:28.141Z,101182.73
2019-02-27T16:58:36.449Z,101168.64
2019-02-27T17:01:04.868Z,101173.70
2019-02-27T17:03:33.268Z,101161.59
2019-02-27T17:06:20.933Z,101154.62
2019-02-27T17:09:10.135Z,101152.99
2019-02-27T17:11:38.736Z,101150.97
2019-02-27T17:14:26.258Z,101144.17
2019-02-27T17:16:54.677Z,101137.45
2019-02-27T17:19:42.206Z,101137.86
2019-02-27T17:22:10.997Z,101128.95
2019-02-27T17:24:40.741Z,101124.24
2019-02-27T17:27:28.269Z,101111.87
2019-02-27T17:30:16.041Z,101107.42
2019-02-27T17:33:24.354Z,101107.09
2019-02-27T17:35:53.212Z,101099.70
2019-02-27T17:38:22.895Z,101092.53
2019-02-27T17:41:10.560Z,101091.56
2019-02-27T17:43:38.967Z,101091.34
2019-02-27T17:46:07.399Z,101086.64
2019-02-27T17:48:35.807Z,101082.89
2019-02-27T17:51:06.539Z,101084.95
2019-02-27T17:53:34.347Z,101075.48
2019-02-27T17:56:02.763Z,101070.63
2019-02-27T17:58:33.597Z,101069.05
2019-02-27T18:03:41.808Z,101062.67
2019-02-27T18:06:31.167Z,101057.54
2019-02-27T18:12:05.956Z,101042.72
2019-02-27T18:14:53.483Z,101031.67
2019-02-27T18:20:14.849Z,101021.34
2019-02-27T18:22:45.930Z,101021.66
2019-02-27T18:25:32.721Z,101015.35
2019-02-27T18:28:01.137Z,101013.22
2019-02-27T18:30:52.840Z,101007.75
2019-02-27T18:33:18.927Z,100994.57
2019-02-27T18:35:47.334Z,100991.27
2019-02-27T18:38:15.755Z,100985.73
2019-02-27T18:40:44.470Z,100974.91
2019-02-27T18:43:12.888Z,100987.03
2019-02-27T18:45:41.294Z,100978.83
2019-02-27T18:48:10.113Z,100970.08
2019-02-27T18:50:38.993Z,100963.28
2019-02-27T18:53:26.532Z,100969.05
2019-02-27T18:55:54.935Z,100956.42
2019-02-27T18:58:42.463Z,100950.00
2019-02-27T19:01:50.791Z,100948.13
2019-02-27T19:04:19.202Z,100946.73
2019-02-27T19:09:40.787Z,100947.62
2019-02-27T19:12:09.203Z,100940.07
2019-02-27T19:17:44.426Z,100933.05
2019-02-27T19:20:52.739Z,100934.38
2019-02-27T19:23:21.157Z,100928.68
2019-02-27T19:25:49.559Z,100921.03
2019-02-27T19:28:37.217Z,100919.00
2019-02-27T19:33:53.084Z,100915.77
2019-02-27T19:36:21.488Z,100909.48
2019-02-27T19:38:49.913Z,100901.94
2019-02-27T19:41:58.239Z,100901.91
2019-02-27T19:44:45.894Z,100898.27
2019-02-27T19:47:33.559Z,100899.02
2019-02-27T19:53:08.665Z,100897.75
2019-02-27T19:56:00.601Z,100900.92
2019-02-27T19:58:26.318Z,100894.11
2019-02-27T20:00:54.727Z,100896.16
2019-02-27T20:03:42.325Z,100893.03
2019-02-27T20:09:20.082Z,100888.96
2019-02-27T20:12:06.739Z,100887.16
2019-02-27T20:17:49.423Z,100876.83
2019-02-27T20:20:40.949Z,100881.91
2019-02-27T20:23:07.582Z,100869.78
2019-02-27T20:25:56.137Z,100875.77
2019-02-27T20:28:44.352Z,100874.89
2019-02-27T20:31:17.959Z,100867.13
2019-02-27T20:33:42.907Z,100861.28
2019-02-27T20:36:33.012Z,100859.20
2019-02-27T20:39:00.688Z,100847.54
2019-02-27T20:41:48.337Z,100835.55
2019-02-27T20:44:37.297Z,100837.53
2019-02-27T20:47:25.114Z,100832.95
2019-02-27T20:50:12.762Z,100832.91
2019-02-27T20:53:00.422Z,100817.83
2019-02-27T20:55:30.918Z,100809.39
2019-02-27T20:58:18.476Z,100807.84
2019-02-27T21:00:46.884Z,100800.95
2019-02-27T21:03:15.302Z,100800.50
2019-02-27T21:08:33.291Z,100792.19
2019-02-27T21:11:02.926Z,100790.24
2019-02-27T21:14:11.263Z,100785.92
2019-02-27T21:19:28.759Z,100785.31
2019-02-27T21:22:16.531Z,100786.56
2019-02-27T21:25:04.189Z,100789.97
2019-02-27T21:30:51.816Z,100783.22
2019-02-27T21:33:16.889Z,100776.20
2019-02-27T21:35:45.294Z,100773.97
2019-02-27T21:38:16.703Z,100772.09
2019-02-27T21:40:43.833Z,100767.16
2019-02-27T21:43:31.490Z,100762.83
2019-02-27T21:45:59.898Z,100759.11
2019-02-27T21:48:47.559Z,100764.08
2019-02-27T21:54:22.753Z,100763.80
2019-02-27T21:57:10.411Z,100759.47
2019-02-27T21:59:58.069Z,100759.47
2019-02-27T22:05:18.413Z,100750.11
2019-02-27T22:10:53.687Z,100737.20
2019-02-27T22:13:29.460Z,100732.84
2019-02-27T22:15:55.775Z,100729.07
2019-02-27T22:18:22.550Z,100719.42
2019-02-27T22:20:50.962Z,100722.83
2019-02-27T22:23:38.613Z,100712.93
2019-02-27T22:26:07.034Z,100710.28
2019-02-27T22:31:22.902Z,100713.49
2019-02-27T22:34:10.428Z,100705.56
2019-02-27T22:36:58.343Z,100712.66
2019-02-27T22:39:26.779Z,100713.77
2019-02-27T22:42:15.327Z,100707.84
2019-02-27T22:47:21.673Z,100700.64
2019-02-27T22:49:49.334Z,100702.80
2019-02-27T22:52:19.305Z,100701.67
2019-02-27T22:54:47.877Z,100690.05
2019-02-27T22:57:16.281Z,100684.98
2019-02-27T23:05:32.214Z,100688.58
2019-02-27T23:08:00.614Z,100686.58
2019-02-27T23:10:48.274Z,100684.14
2019-02-27T23:13:56.606Z,100674.89
2019-02-27T23:18:59.445Z,100661.68
2019-02-27T23:21:47.111Z,100665.84
2019-02-27T23:27:03.392Z,100654.06
2019-02-27T23:29:52.330Z,100647.46
2019-02-27T23:32:20.750Z,100647.82
2019-02-27T23:34:49.152Z,100643.16
2019-02-27T23:37:17.589Z,100638.47
2019-02-27T23:39:46.005Z,100632.03
2019-02-27T23:45:12.721Z,100633.55
2019-02-27T23:47:41.283Z,100631.19
2019-02-27T23:50:30.481Z,100619.49
2019-02-27T23:52:58.886Z,100624.47
2019-02-27T23:56:07.207Z,100623.34
